Time;durP1;ratioP1;P1;durP2;ratioP2;P2;SDS_P1;SDS_P2;PMS_P1;PMS_P2;Temp;Humidity;BMP_temperature;BMP_pressure;BME280_temperature;BME280_humidity;BME280_pressure;Samples;Min_cycle;Max_cycle;Signal;HPM_P1;HPM_P2
2023/01/12 00:00:43;;;;;;;13.25;7.47;;;6.20;1.00;;;;;;6262496;22;20230;-86
2023/01/12 00:03:15;;;;;;;11.75;6.65;;;6.20;1.00;;;;;;6264646;22;20222;-86
2023/01/12 00:05:45;;;;;;;17.70;8.10;;;6.20;1.00;;;;;;6273299;22;20205;-85
2023/01/12 00:08:15;;;;;;;15.80;7.72;;;6.20;1.00;;;;;;6274521;22;20231;-86
2023/01/12 00:10:47;;;;;;;12.32;7.47;;;6.20;1.00;;;;;;6260582;22;20293;-87
2023/01/12 00:13:15;;;;;;;13.75;7.50;;;6.20;1.00;;;;;;6289612;22;20234;-87
2023/01/12 00:18:47;;;;;;;15.95;8.32;;;6.20;1.00;;;;;;6240054;22;20226;-87
2023/01/12 00:21:25;;;;;;;12.80;7.82;;;6.20;1.00;;;;;;6273741;22;20224;-86
2023/01/12 00:24:07;;;;;;;14.30;7.40;;;6.20;1.00;;;;;;6266218;22;20317;-87
2023/01/12 00:26:46;;;;;;;16.13;7.00;;;6.10;1.00;;;;;;6259865;22;21006;-88
2023/01/12 00:29:25;;;;;;;17.50;7.53;;;6.10;1.00;;;;;;6284039;22;21083;-87
2023/01/12 00:31:56;;;;;;;16.92;6.75;;;6.10;1.00;;;;;;6241104;22;20212;-87
2023/01/12 00:34:45;;;;;;;15.85;8.18;;;6.10;1.00;;;;;;6269670;22;21057;-87
2023/01/12 00:37:15;;;;;;;12.88;7.32;;;6.10;1.00;;;;;;6276317;22;20216;-88
2023/01/12 00:39:55;;;;;;;13.60;7.15;;;6.10;1.00;;;;;;6252375;22;20873;-87
2023/01/12 00:45:46;;;;;;;17.30;7.35;;;6.00;1.00;;;;;;6241201;22;20335;-87
2023/01/12 00:51:07;;;;;;;13.65;7.20;;;6.00;1.00;;;;;;6118893;23;20223;-86
2023/01/12 00:59:58;;;;;;;14.35;6.28;;;5.90;1.00;;;;;;6140972;23;20263;-83
2023/01/12 01:11:37;;;;;;;10.68;5.10;;;6.00;1.00;;;;;;6168518;23;20209;-88
2023/01/12 01:14:37;;;;;;;12.20;5.05;;;5.90;1.00;;;;;;6249291;22;20212;-87
2023/01/12 01:17:45;;;;;;;11.05;5.07;;;5.90;1.00;;;;;;6248795;22;20211;-87
2023/01/12 01:21:05;;;;;;;15.35;5.20;;;5.90;1.00;;;;;;6256710;22;20948;-85
2023/01/12 01:24:25;;;;;;;10.65;4.50;;;6.00;1.00;;;;;;6209472;22;20994;-85
2023/01/12 01:43:28;;;;;;;12.30;3.85;;;6.00;1.00;;;;;;6101262;23;20233;-87
2023/01/12 01:46:21;;;;;;;8.15;3.40;;;6.00;1.00;;;;;;6102639;23;20215;-87
2023/01/12 02:43:32;;;;;;;;;;;;;;;;;;;;;
2023/01/12 02:46:20;;;;;;;12.38;3.25;;;6.50;1.00;;;;;;5111935;27;47852;-89
2023/01/12 02:48:57;;;;;;;16.02;3.78;;;6.50;1.00;;;;;;5118559;27;21130;-90
2023/01/12 02:51:41;;;;;;;10.73;2.45;;;6.50;1.00;;;;;;5115063;27;20242;-89
2023/01/12 02:54:23;;;;;;;8.55;2.90;;;6.50;1.00;;;;;;5125424;27;20231;-89
2023/01/12 02:57:26;;;;;;;9.35;2.75;;;6.40;1.00;;;;;;5082067;28;20223;-90
2023/01/12 03:00:42;;;;;;;;;;;;;;;;;;;;;
2023/01/12 03:03:49;;;;;;;;;;;;;;;;;;;;;
2023/01/12 03:09:58;;;;;;;7.95;2.72;;;6.40;1.00;;;;;;5040403;28;20227;-90
2023/01/12 03:12:39;;;;;;;9.63;2.97;;;6.40;1.00;;;;;;4994643;28;20287;-91
2023/01/12 03:15:13;;;;;;;19.20;3.03;;;6.40;1.00;;;;;;5096936;27;20262;-89
2023/01/12 03:18:04;;;;;;;11.45;3.25;;;6.40;1.00;;;;;;5112428;27;20334;-91
2023/01/12 03:20:38;;;;;;;8.77;2.95;;;6.40;1.00;;;;;;4990216;28;20231;-90
2023/01/12 03:23:17;;;;;;;11.15;2.97;;;6.30;1.00;;;;;;5074455;27;20263;-88
2023/01/12 03:26:26;;;;;;;;;;;;;;;;;;;;;
2023/01/12 03:29:23;;;;;;;12.80;3.20;;;6.40;1.00;;;;;;5038028;27;51379;-89
2023/01/12 03:31:52;;;;;;;11.52;2.90;;;6.40;1.00;;;;;;5125795;27;20908;-89
2023/01/12 03:34:21;;;;;;;11.00;3.00;;;6.40;1.00;;;;;;5122355;27;20286;-89
2023/01/12 03:36:58;;;;;;;12.07;2.53;;;6.40;1.00;;;;;;5129889;27;20290;-89
2023/01/12 03:40:10;;;;;;;7.47;2.97;;;6.40;1.00;;;;;;5093176;27;20305;-90
2023/01/12 03:43:12;;;;;;;12.20;2.65;;;6.40;1.00;;;;;;5096260;27;20236;-88
2023/01/12 03:46:21;;;;;;;8.55;2.75;;;6.40;1.00;;;;;;5049802;28;20313;-89
2023/01/12 03:49:19;;;;;;;13.07;3.72;;;6.40;1.00;;;;;;5091121;28;20244;-90
2023/01/12 03:51:58;;;;;;;11.07;2.92;;;6.40;1.00;;;;;;5104331;27;20243;-90
2023/01/12 03:54:35;;;;;;;8.18;2.28;;;6.50;1.00;;;;;;5106419;28;20321;-90
2023/01/12 03:57:27;;;;;;;;;;;;;;;;;;;;;
2023/01/12 03:59:59;;;;;;;7.07;2.00;;;6.40;1.00;;;;;;5065618;28;50983;-90
2023/01/12 04:02:56;;;;;;;9.52;2.60;;;6.50;1.00;;;;;;5096022;28;20250;-89
2023/01/12 04:08:21;;;;;;;9.32;2.53;;;6.50;1.00;;;;;;5089659;27;20221;-91
2023/01/12 04:12:08;;;;;;;8.80;2.63;;;6.50;1.00;;;;;;5101916;27;20240;-89
2023/01/12 04:13:46;;;;;;;8.32;2.90;;;6.50;1.00;;;;;;5094713;27;20231;-89
2023/01/12 04:16:38;;;;;;;;;;;;;;;;;;;;;
2023/01/12 04:19:35;;;;;;;8.40;3.08;;;6.60;1.00;;;;;;5111157;28;50738;-89
2023/01/12 04:28:21;;;;;;;8.65;2.40;;;6.60;1.00;;;;;;5109627;27;20314;-90
2023/01/12 04:30:51;;;;;;;9.18;2.05;;;6.60;1.00;;;;;;5119184;27;20385;-90
2023/01/12 04:33:25;;;;;;;10.40;2.45;;;6.60;1.00;;;;;;5081973;28;20237;-90
2023/01/12 04:36:04;;;;;;;9.00;2.75;;;6.60;1.00;;;;;;5094993;28;20224;-88
2023/01/12 04:39:06;;;;;;;10.77;3.78;;;6.60;1.00;;;;;;5084416;28;20223;-89
2023/01/12 04:41:53;;;;;;;8.95;2.83;;;6.70;1.00;;;;;;5083192;28;20227;-90
2023/01/12 04:44:22;;;;;;;7.47;2.28;;;6.70;1.00;;;;;;5096782;27;20212;-88
2023/01/12 04:47:07;;;;;;;13.25;2.53;;;6.70;1.00;;;;;;5099490;27;20262;-89
2023/01/12 04:49:39;;;;;;;9.95;2.10;;;6.70;1.00;;;;;;5078102;28;20232;-90
2023/01/12 04:52:29;;;;;;;7.30;2.42;;;6.70;1.00;;;;;;5106395;28;20253;-90
2023/01/12 04:55:00;;;;;;;7.88;3.00;;;6.80;1.00;;;;;;5099634;28;20242;-89
2023/01/12 04:58:03;;;;;;;7.70;2.38;;;6.80;1.00;;;;;;5075105;28;20239;-90
2023/01/12 05:04:20;;;;;;;8.65;2.05;;;6.90;1.00;;;;;;4958443;28;20271;-88
2023/01/12 05:07:12;;;;;;;10.23;2.75;;;6.80;1.00;;;;;;4966173;28;20306;-89
2023/01/12 06:21:59;;;;;;;9.52;2.70;;;7.80;1.00;;;;;;6051279;23;20221;-89
2023/01/12 06:27:17;;;;;;;12.38;2.83;;;7.80;1.00;;;;;;6034679;23;20664;-91
2023/01/12 06:33:54;;;;;;;;;;;;;;;;;;;;;
2023/01/12 07:22:11;;;;;;;11.45;2.72;;;7.80;1.00;;;;;;6181544;23;20883;-89
2023/01/12 07:31:56;;;;;;;;;;;;;;;;;;;;;
2023/01/12 07:48:04;;;;;;;7.55;2.00;;;8.10;1.00;;;;;;6062711;23;21026;-89
2023/01/12 08:02:22;;;;;;;9.00;2.95;;;8.40;1.00;;;;;;5956085;23;20216;-89
2023/01/12 08:47:44;;;;;;;9.77;2.22;;;8.80;1.00;;;;;;6097099;23;20419;-89
2023/01/12 08:50:22;;;;;;;9.38;2.08;;;8.80;1.00;;;;;;6151139;23;20212;-89
2023/01/12 08:53:52;;;;;;;;;;;;;;;;;;;;;
2023/01/12 09:00:13;;;;;;;8.13;1.80;;;9.10;1.00;;;;;;6172422;22;20220;-89
2023/01/12 09:54:37;;;;;;;;;;;;;;;;;;;;;
2023/01/12 10:47:58;;;;;;;;;;;;;;;;;;;;;
2023/01/12 10:58:10;;;;;;;9.77;2.50;;;10.20;1.00;;;;;;6006496;23;20441;-89
2023/01/12 11:07:03;;;;;;;;;;;;;;;;;;;;;
2023/01/12 11:35:40;;;;;;;8.10;1.95;;;9.00;1.00;;;;;;5941622;24;20226;-89
2023/01/12 11:38:50;;;;;;;10.13;1.95;;;9.00;1.00;;;;;;6161221;22;20239;-89
2023/01/12 11:43:47;;;;;;;8.82;1.90;;;9.00;1.00;;;;;;6230508;22;20203;-89
2023/01/12 11:48:34;;;;;;;8.20;1.87;;;8.80;1.00;;;;;;6063914;22;20483;-89
2023/01/12 12:21:42;;;;;;;6.37;1.70;;;8.80;1.00;;;;;;6077610;23;20409;-90
2023/01/12 12:24:49;;;;;;;8.50;1.60;;;8.90;1.00;;;;;;6091779;23;20557;-88
2023/01/12 12:34:42;;;;;;;6.00;1.53;;;9.10;1.00;;;;;;6200973;23;20397;-89
2023/01/12 12:51:11;;;;;;;7.00;1.17;;;9.60;1.00;;;;;;6124617;23;20418;-89
2023/01/12 13:53:24;;;;;;;5.50;1.00;;;10.30;1.00;;;;;;6049074;23;21140;-90
2023/01/12 14:26:02;;;;;;;4.90;0.77;;;10.40;1.00;;;;;;6176270;23;20414;-90
2023/01/12 14:58:29;;;;;;;5.40;1.20;;;10.50;1.00;;;;;;6145040;23;20383;-88
2023/01/12 16:04:55;;;;;;;5.10;0.73;;;10.80;1.00;;;;;;6087928;23;20468;-91
2023/01/12 16:11:17;;;;;;;;;;;;;;;;;;;;;
2023/01/12 16:45:08;;;;;;;5.03;0.90;;;10.90;1.00;;;;;;6020185;23;20397;-89
2023/01/12 20:15:57;;;;;;;;;;;;;;;;;;;;;
2023/01/12 20:18:59;;;;;;;;;;;;;;;;;;;;;
2023/01/12 20:22:18;;;;;;;;;;;;;;;;;;;;;
2023/01/12 20:25:11;;;;;;;;;;;;;;;;;;;;;
2023/01/12 21:15:53;;;;;;;5.40;1.50;;;9.50;1.00;;;;;;6283575;22;20435;-91
2023/01/12 21:21:53;;;;;;;5.45;1.33;;;9.40;1.00;;;;;;6070519;23;20390;-91
2023/01/12 21:24:36;;;;;;;;;;;;;;;;;;;;;
2023/01/12 21:27:54;;;;;;;;;;;;;;;;;;;;;
2023/01/12 21:31:05;;;;;;;;;;;;;;;;;;;;;
2023/01/12 21:33:41;;;;;;;5.30;1.37;;;9.40;1.00;;;;;;6210116;22;50987;-90
2023/01/12 21:36:27;;;;;;;;;;;;;;;;;;;;;
2023/01/12 21:39:25;;;;;;;5.10;1.30;;;9.40;1.00;;;;;;6213142;22;48354;-91
2023/01/12 21:49:08;;;;;;;;;;;;;;;;;;;;;
2023/01/12 21:54:47;;;;;;;4.60;1.10;;;9.30;1.00;;;;;;6065385;23;20411;-90
2023/01/12 21:57:19;;;;;;;4.90;0.97;;;9.40;1.00;;;;;;6069312;23;20450;-92
2023/01/12 21:59:58;;;;;;;;;;;;;;;;;;;;;
2023/01/12 22:02:32;;;;;;;4.53;1.00;;;9.30;1.00;;;;;;6041562;23;38773;-91
2023/01/12 22:05:22;;;;;;;4.50;1.20;;;9.30;1.00;;;;;;5986569;23;20468;-90
2023/01/12 22:07:59;;;;;;;5.27;1.43;;;9.30;1.00;;;;;;6022230;23;20429;-91
2023/01/12 22:10:35;;;;;;;5.07;1.20;;;9.40;1.00;;;;;;6178174;22;20418;-90
2023/01/12 22:13:11;;;;;;;6.70;1.60;;;9.40;1.00;;;;;;6240422;22;20475;-91
2023/01/12 22:15:52;;;;;;;;;;;;;;;;;;;;;
2023/01/12 22:18:21;;;;;;;4.43;1.10;;;9.40;1.00;;;;;;6241691;22;39848;-91
2023/01/12 22:21:00;;;;;;;4.70;1.10;;;9.40;1.00;;;;;;6235567;22;20405;-90
2023/01/12 22:23:56;;;;;;;4.90;1.20;;;9.40;1.00;;;;;;6250835;22;20449;-91
2023/01/12 22:26:31;;;;;;;5.50;1.35;;;9.30;1.00;;;;;;6244553;22;20450;-91
2023/01/12 22:29:32;;;;;;;;;;;;;;;;;;;;;
2023/01/12 22:32:08;;;;;;;4.80;1.10;;;9.30;1.00;;;;;;6205397;22;51437;-90
2023/01/12 22:34:42;;;;;;;4.53;1.00;;;9.30;1.00;;;;;;6199750;22;20944;-92
2023/01/12 22:37:25;;;;;;;;;;;;;;;;;;;;;
2023/01/12 22:39:56;;;;;;;5.30;1.23;;;9.30;1.00;;;;;;6191419;22;51411;-92
2023/01/12 22:43:24;;;;;;;4.90;1.13;;;9.30;1.00;;;;;;6226331;22;20460;-91
2023/01/12 22:45:19;;;;;;;4.60;1.40;;;9.30;1.00;;;;;;6223418;22;20436;-91
2023/01/12 22:48:07;;;;;;;5.20;1.37;;;9.30;1.00;;;;;;6210995;22;20505;-92
2023/01/12 22:50:38;;;;;;;4.75;1.45;;;9.30;1.00;;;;;;6096263;23;20444;-91
2023/01/12 22:53:10;;;;;;;5.00;1.40;;;9.30;1.00;;;;;;6136054;22;20556;-91
2023/01/12 22:55:46;;;;;;;4.77;1.30;;;9.30;1.00;;;;;;6203477;22;20451;-91
2023/01/12 22:58:58;;;;;;;4.60;1.27;;;9.30;1.00;;;;;;6228863;22;20384;-90
2023/01/12 23:02:58;;;;;;;4.80;1.13;;;9.30;1.00;;;;;;6203621;22;20383;-91
2023/01/12 23:04:57;;;;;;;4.70;1.30;;;9.30;1.00;;;;;;6205954;22;20403;-92
2023/01/12 23:07:48;;;;;;;5.70;1.47;;;9.30;1.00;;;;;;6217796;22;21287;-91
2023/01/12 23:10:28;;;;;;;4.70;1.43;;;9.30;1.00;;;;;;6237085;22;20380;-92
2023/01/12 23:13:18;;;;;;;5.33;1.23;;;9.30;1.00;;;;;;6247049;22;20385;-90
2023/01/12 23:18:44;;;;;;;4.70;1.20;;;9.30;1.00;;;;;;6220494;22;20515;-91
2023/01/12 23:21:27;;;;;;;;;;;;;;;;;;;;;
2023/01/12 23:24:28;;;;;;;4.57;1.20;;;9.30;1.00;;;;;;6252047;22;49716;-89
2023/01/12 23:27:11;;;;;;;4.50;1.10;;;9.30;1.00;;;;;;6260126;22;20427;-90
2023/01/12 23:29:41;;;;;;;5.70;1.50;;;9.30;1.00;;;;;;6153680;23;20487;-90
2023/01/12 23:32:09;;;;;;;4.80;1.40;;;9.30;1.00;;;;;;6123631;23;20455;-90
2023/01/12 23:34:40;;;;;;;5.47;1.57;;;9.30;1.00;;;;;;6151865;23;20413;-91
2023/01/12 23:37:20;;;;;;;4.40;1.10;;;9.30;1.00;;;;;;6145776;23;20423;-91
2023/01/12 23:39:50;;;;;;;4.90;1.37;;;9.30;1.00;;;;;;6230041;22;20455;-92
2023/01/12 23:42:27;;;;;;;4.80;1.13;;;9.30;1.00;;;;;;6257458;22;20403;-90
2023/01/12 23:45:02;;;;;;;4.80;0.90;;;9.30;1.00;;;;;;6240447;22;20469;-91
2023/01/12 23:47:34;;;;;;;4.50;1.20;;;9.30;1.00;;;;;;6225105;22;20398;-91
2023/01/12 23:50:11;;;;;;;;;;;;;;;;;;;;;
2023/01/12 23:52:44;;;;;;;4.87;1.20;;;9.30;1.00;;;;;;6222059;22;40275;-91
2023/01/12 23:55:11;;;;;;;4.50;0.97;;;9.30;1.00;;;;;;6235159;22;20442;-90
2023/01/12 23:57:44;;;;;;;4.60;1.17;;;9.30;1.00;;;;;;6213289;22;20491;-91
